sensor_id;sensor_type;location;lat;lon;timestamp;P1;durP1;ratioP1;P2;durP2;ratioP2
40252;SDS011;25972;51.854;4.534;2023-11-18T00:00:36;26.75;;;23.80;;
40252;SDS011;25972;51.854;4.534;2023-11-18T00:03:03;25.08;;;22.35;;
40252;SDS011;25972;51.854;4.534;2023-11-18T00:05:30;24.20;;;22.00;;
40252;SDS011;25972;51.854;4.534;2023-11-18T00:07:56;25.13;;;22.48;;
40252;SDS011;25972;51.854;4.534;2023-11-18T00:10:22;26.30;;;22.17;;
40252;SDS011;25972;51.854;4.534;2023-11-18T00:12:49;27.10;;;22.25;;
40252;SDS011;25972;51.854;4.534;2023-11-18T00:15:15;30.27;;;22.30;;
40252;SDS011;25972;51.854;4.534;2023-11-18T00:17:41;24.95;;;22.48;;
40252;SDS011;25972;51.854;4.534;2023-11-18T00:20:09;25.35;;;22.52;;
40252;SDS011;25972;51.854;4.534;2023-11-18T00:22:37;24.40;;;22.02;;
40252;SDS011;25972;51.854;4.534;2023-11-18T00:25:03;26.30;;;23.25;;
40252;SDS011;25972;51.854;4.534;2023-11-18T00:27:30;25.10;;;22.52;;
40252;SDS011;25972;51.854;4.534;2023-11-18T00:29:56;27.48;;;23.33;;
40252;SDS011;25972;51.854;4.534;2023-11-18T00:32:23;26.10;;;23.42;;
40252;SDS011;25972;51.854;4.534;2023-11-18T00:34:49;25.45;;;22.90;;
40252;SDS011;25972;51.854;4.534;2023-11-18T00:37:16;27.00;;;24.08;;
40252;SDS011;25972;51.854;4.534;2023-11-18T00:39:42;26.35;;;23.63;;
40252;SDS011;25972;51.854;4.534;2023-11-18T00:42:08;29.30;;;23.98;;
40252;SDS011;25972;51.854;4.534;2023-11-18T00:44:35;26.80;;;23.90;;
40252;SDS011;25972;51.854;4.534;2023-11-18T00:47:00;27.38;;;23.38;;
40252;SDS011;25972;51.854;4.534;2023-11-18T00:49:28;29.45;;;23.85;;
40252;SDS011;25972;51.854;4.534;2023-11-18T00:51:53;28.85;;;24.58;;
40252;SDS011;25972;51.854;4.534;2023-11-18T00:54:21;29.35;;;23.98;;
40252;SDS011;25972;51.854;4.534;2023-11-18T00:56:47;26.73;;;24.05;;
40252;SDS011;25972;51.854;4.534;2023-11-18T00:59:14;30.08;;;23.70;;
40252;SDS011;25972;51.854;4.534;2023-11-18T01:01:40;32.47;;;24.05;;
40252;SDS011;25972;51.854;4.534;2023-11-18T01:04:07;27.88;;;23.95;;
40252;SDS011;25972;51.854;4.534;2023-11-18T01:06:34;26.63;;;23.75;;
40252;SDS011;25972;51.854;4.534;2023-11-18T01:09:00;28.38;;;23.60;;
40252;SDS011;25972;51.854;4.534;2023-11-18T01:11:27;26.83;;;23.80;;
40252;SDS011;25972;51.854;4.534;2023-11-18T01:13:54;26.50;;;23.70;;
40252;SDS011;25972;51.854;4.534;2023-11-18T01:16:21;36.28;;;25.45;;
40252;SDS011;25972;51.854;4.534;2023-11-18T01:18:47;26.58;;;23.75;;
40252;SDS011;25972;51.854;4.534;2023-11-18T01:21:13;30.40;;;24.58;;
40252;SDS011;25972;51.854;4.534;2023-11-18T01:23:45;28.10;;;24.02;;
40252;SDS011;25972;51.854;4.534;2023-11-18T01:26:11;28.42;;;23.45;;
40252;SDS011;25972;51.854;4.534;2023-11-18T01:28:39;31.67;;;24.17;;
40252;SDS011;25972;51.854;4.534;2023-11-18T01:31:10;30.58;;;23.63;;
40252;SDS011;25972;51.854;4.534;2023-11-18T01:33:36;33.20;;;24.95;;
40252;SDS011;25972;51.854;4.534;2023-11-18T01:36:03;27.38;;;23.35;;
40252;SDS011;25972;51.854;4.534;2023-11-18T01:38:31;30.13;;;24.25;;
40252;SDS011;25972;51.854;4.534;2023-11-18T01:40:58;35.65;;;24.52;;
40252;SDS011;25972;51.854;4.534;2023-11-18T01:43:25;26.80;;;24.02;;
40252;SDS011;25972;51.854;4.534;2023-11-18T01:45:53;28.60;;;23.30;;
40252;SDS011;25972;51.854;4.534;2023-11-18T01:48:19;28.60;;;23.67;;
40252;SDS011;25972;51.854;4.534;2023-11-18T01:50:47;28.88;;;23.63;;
40252;SDS011;25972;51.854;4.534;2023-11-18T01:53:14;28.92;;;23.52;;
40252;SDS011;25972;51.854;4.534;2023-11-18T01:55:40;32.25;;;24.23;;
40252;SDS011;25972;51.854;4.534;2023-11-18T01:58:07;31.58;;;23.63;;
40252;SDS011;25972;51.854;4.534;2023-11-18T02:00:36;30.77;;;24.30;;
40252;SDS011;25972;51.854;4.534;2023-11-18T02:03:06;28.27;;;22.95;;
40252;SDS011;25972;51.854;4.534;2023-11-18T02:05:32;28.38;;;22.30;;
40252;SDS011;25972;51.854;4.534;2023-11-18T02:07:58;25.67;;;22.88;;
40252;SDS011;25972;51.854;4.534;2023-11-18T02:10:25;29.38;;;23.10;;
40252;SDS011;25972;51.854;4.534;2023-11-18T02:12:54;31.05;;;22.92;;
40252;SDS011;25972;51.854;4.534;2023-11-18T02:15:31;30.05;;;23.27;;
40252;SDS011;25972;51.854;4.534;2023-11-18T02:17:59;27.60;;;22.60;;
40252;SDS011;25972;51.854;4.534;2023-11-18T02:20:30;27.33;;;22.08;;
40252;SDS011;25972;51.854;4.534;2023-11-18T02:22:57;24.35;;;21.75;;
40252;SDS011;25972;51.854;4.534;2023-11-18T02:25:24;28.17;;;22.13;;
40252;SDS011;25972;51.854;4.534;2023-11-18T02:27:55;32.67;;;22.67;;
40252;SDS011;25972;51.854;4.534;2023-11-18T02:30:21;31.60;;;22.67;;
40252;SDS011;25972;51.854;4.534;2023-11-18T02:32:49;25.48;;;22.75;;
40252;SDS011;25972;51.854;4.534;2023-11-18T02:35:25;26.70;;;21.50;;
40252;SDS011;25972;51.854;4.534;2023-11-18T02:37:55;27.60;;;22.15;;
40252;SDS011;25972;51.854;4.534;2023-11-18T02:40:26;29.30;;;22.42;;
40252;SDS011;25972;51.854;4.534;2023-11-18T02:42:57;27.10;;;21.70;;
40252;SDS011;25972;51.854;4.534;2023-11-18T02:45:25;25.65;;;22.67;;
40252;SDS011;25972;51.854;4.534;2023-11-18T02:47:52;24.90;;;22.25;;
40252;SDS011;25972;51.854;4.534;2023-11-18T02:50:22;26.67;;;22.23;;
40252;SDS011;25972;51.854;4.534;2023-11-18T02:52:49;25.15;;;21.42;;
40252;SDS011;25972;51.854;4.534;2023-11-18T02:55:15;28.08;;;20.92;;
40252;SDS011;25972;51.854;4.534;2023-11-18T02:57:41;29.77;;;22.35;;
40252;SDS011;25972;51.854;4.534;2023-11-18T03:00:09;28.48;;;22.17;;
40252;SDS011;25972;51.854;4.534;2023-11-18T03:02:37;33.35;;;23.08;;
40252;SDS011;25972;51.854;4.534;2023-11-18T03:05:05;26.88;;;21.90;;
40252;SDS011;25972;51.854;4.534;2023-11-18T03:07:32;26.42;;;22.98;;
40252;SDS011;25972;51.854;4.534;2023-11-18T03:09:58;30.95;;;22.50;;
40252;SDS011;25972;51.854;4.534;2023-11-18T03:12:25;29.95;;;23.20;;
40252;SDS011;25972;51.854;4.534;2023-11-18T03:14:52;31.70;;;23.38;;
40252;SDS011;25972;51.854;4.534;2023-11-18T03:17:20;26.10;;;23.30;;
40252;SDS011;25972;51.854;4.534;2023-11-18T03:19:46;30.92;;;23.33;;
40252;SDS011;25972;51.854;4.534;2023-11-18T03:22:12;28.30;;;22.70;;
40252;SDS011;25972;51.854;4.534;2023-11-18T03:24:38;29.65;;;23.58;;
40252;SDS011;25972;51.854;4.534;2023-11-18T03:27:05;37.20;;;23.70;;
40252;SDS011;25972;51.854;4.534;2023-11-18T03:29:31;25.02;;;22.42;;
40252;SDS011;25972;51.854;4.534;2023-11-18T03:31:58;30.88;;;23.02;;
40252;SDS011;25972;51.854;4.534;2023-11-18T03:34:26;25.88;;;22.88;;
40252;SDS011;25972;51.854;4.534;2023-11-18T03:36:52;25.38;;;22.20;;
40252;SDS011;25972;51.854;4.534;2023-11-18T03:39:19;27.48;;;23.00;;
40252;SDS011;25972;51.854;4.534;2023-11-18T03:41:45;32.05;;;25.13;;
40252;SDS011;25972;51.854;4.534;2023-11-18T03:44:11;30.90;;;25.17;;
40252;SDS011;25972;51.854;4.534;2023-11-18T03:46:37;29.10;;;23.90;;
40252;SDS011;25972;51.854;4.534;2023-11-18T03:49:04;33.20;;;24.20;;
40252;SDS011;25972;51.854;4.534;2023-11-18T03:51:31;26.33;;;23.52;;
40252;SDS011;25972;51.854;4.534;2023-11-18T03:53:57;30.08;;;24.08;;
40252;SDS011;25972;51.854;4.534;2023-11-18T03:56:23;32.58;;;24.25;;
40252;SDS011;25972;51.854;4.534;2023-11-18T03:58:52;28.63;;;24.15;;
40252;SDS011;25972;51.854;4.534;2023-11-18T04:01:21;28.48;;;25.45;;
40252;SDS011;25972;51.854;4.534;2023-11-18T04:03:48;29.92;;;23.52;;
40252;SDS011;25972;51.854;4.534;2023-11-18T04:06:14;28.30;;;25.13;;
40252;SDS011;25972;51.854;4.534;2023-11-18T04:08:44;29.10;;;25.83;;
40252;SDS011;25972;51.854;4.534;2023-11-18T04:11:10;34.58;;;26.15;;
40252;SDS011;25972;51.854;4.534;2023-11-18T04:13:36;33.40;;;24.73;;
40252;SDS011;25972;51.854;4.534;2023-11-18T04:16:03;28.75;;;24.98;;
40252;SDS011;25972;51.854;4.534;2023-11-18T04:18:29;28.77;;;25.05;;
40252;SDS011;25972;51.854;4.534;2023-11-18T04:20:57;30.98;;;25.35;;
40252;SDS011;25972;51.854;4.534;2023-11-18T04:23:23;34.75;;;26.83;;
40252;SDS011;25972;51.854;4.534;2023-11-18T04:25:51;36.65;;;26.67;;
40252;SDS011;25972;51.854;4.534;2023-11-18T04:28:17;38.92;;;24.50;;
40252;SDS011;25972;51.854;4.534;2023-11-18T04:30:45;26.75;;;22.13;;
40252;SDS011;25972;51.854;4.534;2023-11-18T04:33:11;32.17;;;25.02;;
40252;SDS011;25972;51.854;4.534;2023-11-18T04:35:39;31.45;;;25.10;;
40252;SDS011;25972;51.854;4.534;2023-11-18T04:38:05;26.73;;;24.00;;
40252;SDS011;25972;51.854;4.534;2023-11-18T04:40:31;28.00;;;23.48;;
40252;SDS011;25972;51.854;4.534;2023-11-18T04:42:59;27.08;;;22.95;;
40252;SDS011;25972;51.854;4.534;2023-11-18T04:45:25;27.65;;;24.17;;
40252;SDS011;25972;51.854;4.534;2023-11-18T04:47:51;32.38;;;24.05;;
40252;SDS011;25972;51.854;4.534;2023-11-18T04:50:18;27.95;;;24.17;;
40252;SDS011;25972;51.854;4.534;2023-11-18T04:52:44;30.20;;;23.52;;
40252;SDS011;25972;51.854;4.534;2023-11-18T04:55:10;28.55;;;23.08;;
40252;SDS011;25972;51.854;4.534;2023-11-18T04:57:38;27.67;;;23.83;;
40252;SDS011;25972;51.854;4.534;2023-11-18T05:00:07;26.25;;;23.17;;
40252;SDS011;25972;51.854;4.534;2023-11-18T05:02:36;27.10;;;23.00;;
40252;SDS011;25972;51.854;4.534;2023-11-18T05:05:02;25.77;;;22.83;;
40252;SDS011;25972;51.854;4.534;2023-11-18T05:07:30;30.25;;;22.55;;
40252;SDS011;25972;51.854;4.534;2023-11-18T05:09:56;28.42;;;23.75;;
40252;SDS011;25972;51.854;4.534;2023-11-18T05:12:22;30.10;;;22.83;;
40252;SDS011;25972;51.854;4.534;2023-11-18T05:14:48;33.85;;;24.13;;
40252;SDS011;25972;51.854;4.534;2023-11-18T05:17:18;26.63;;;22.00;;
40252;SDS011;25972;51.854;4.534;2023-11-18T05:19:44;30.45;;;22.90;;
40252;SDS011;25972;51.854;4.534;2023-11-18T05:22:10;30.73;;;23.15;;
40252;SDS011;25972;51.854;4.534;2023-11-18T05:24:36;28.35;;;22.17;;
40252;SDS011;25972;51.854;4.534;2023-11-18T05:27:02;31.85;;;23.15;;
40252;SDS011;25972;51.854;4.534;2023-11-18T05:29:29;26.30;;;22.92;;
40252;SDS011;25972;51.854;4.534;2023-11-18T05:31:55;26.13;;;22.17;;
40252;SDS011;25972;51.854;4.534;2023-11-18T05:34:22;29.00;;;22.48;;
40252;SDS011;25972;51.854;4.534;2023-11-18T05:36:48;29.92;;;23.30;;
40252;SDS011;25972;51.854;4.534;2023-11-18T05:39:19;26.92;;;22.50;;
40252;SDS011;25972;51.854;4.534;2023-11-18T05:41:45;29.80;;;23.02;;
40252;SDS011;25972;51.854;4.534;2023-11-18T05:44:15;30.52;;;22.08;;
40252;SDS011;25972;51.854;4.534;2023-11-18T05:46:45;31.63;;;23.00;;
40252;SDS011;25972;51.854;4.534;2023-11-18T05:49:16;32.10;;;22.90;;
40252;SDS011;25972;51.854;4.534;2023-11-18T05:51:45;30.60;;;22.55;;
40252;SDS011;25972;51.854;4.534;2023-11-18T05:54:11;24.17;;;21.35;;
40252;SDS011;25972;51.854;4.534;2023-11-18T05:56:37;29.75;;;22.92;;
40252;SDS011;25972;51.854;4.534;2023-11-18T05:59:03;26.10;;;22.40;;
40252;SDS011;25972;51.854;4.534;2023-11-18T06:01:29;26.90;;;22.83;;
40252;SDS011;25972;51.854;4.534;2023-11-18T06:03:55;30.30;;;22.08;;
40252;SDS011;25972;51.854;4.534;2023-11-18T06:06:22;29.40;;;22.55;;
40252;SDS011;25972;51.854;4.534;2023-11-18T06:08:49;27.42;;;22.42;;
40252;SDS011;25972;51.854;4.534;2023-11-18T06:11:16;28.67;;;22.95;;
40252;SDS011;25972;51.854;4.534;2023-11-18T06:13:44;31.42;;;21.67;;
40252;SDS011;25972;51.854;4.534;2023-11-18T06:16:15;26.00;;;21.15;;
40252;SDS011;25972;51.854;4.534;2023-11-18T06:18:42;30.95;;;22.23;;
40252;SDS011;25972;51.854;4.534;2023-11-18T06:21:11;28.40;;;20.10;;
40252;SDS011;25972;51.854;4.534;2023-11-18T06:23:38;25.83;;;22.50;;
40252;SDS011;25972;51.854;4.534;2023-11-18T06:26:05;23.65;;;20.67;;
40252;SDS011;25972;51.854;4.534;2023-11-18T06:28:32;34.45;;;21.83;;
40252;SDS011;25972;51.854;4.534;2023-11-18T06:31:02;28.88;;;22.13;;
40252;SDS011;25972;51.854;4.534;2023-11-18T06:33:28;28.73;;;21.13;;
40252;SDS011;25972;51.854;4.534;2023-11-18T06:35:54;29.00;;;22.05;;
40252;SDS011;25972;51.854;4.534;2023-11-18T06:38:21;29.00;;;20.48;;
40252;SDS011;25972;51.854;4.534;2023-11-18T06:40:47;24.35;;;20.10;;
40252;SDS011;25972;51.854;4.534;2023-11-18T06:43:19;26.65;;;20.85;;
40252;SDS011;25972;51.854;4.534;2023-11-18T06:45:45;25.80;;;20.70;;
40252;SDS011;25972;51.854;4.534;2023-11-18T06:48:14;26.02;;;19.58;;
40252;SDS011;25972;51.854;4.534;2023-11-18T06:50:40;23.33;;;20.60;;
40252;SDS011;25972;51.854;4.534;2023-11-18T06:53:10;33.03;;;21.70;;
40252;SDS011;25972;51.854;4.534;2023-11-18T06:55:37;21.88;;;19.00;;
40252;SDS011;25972;51.854;4.534;2023-11-18T06:58:03;25.30;;;19.15;;
40252;SDS011;25972;51.854;4.534;2023-11-18T07:00:30;23.65;;;20.80;;
40252;SDS011;25972;51.854;4.534;2023-11-18T07:02:56;24.23;;;20.23;;
40252;SDS011;25972;51.854;4.534;2023-11-18T07:05:22;27.65;;;20.20;;
40252;SDS011;25972;51.854;4.534;2023-11-18T07:07:49;25.77;;;19.45;;
40252;SDS011;25972;51.854;4.534;2023-11-18T07:10:15;22.55;;;20.10;;
40252;SDS011;25972;51.854;4.534;2023-11-18T07:12:46;28.02;;;19.20;;
40252;SDS011;25972;51.854;4.534;2023-11-18T07:15:13;31.63;;;20.13;;
40252;SDS011;25972;51.854;4.534;2023-11-18T07:17:41;28.85;;;19.67;;
40252;SDS011;25972;51.854;4.534;2023-11-18T07:20:08;21.33;;;19.13;;
40252;SDS011;25972;51.854;4.534;2023-11-18T07:22:38;25.45;;;18.95;;
40252;SDS011;25972;51.854;4.534;2023-11-18T07:25:05;25.95;;;19.17;;
40252;SDS011;25972;51.854;4.534;2023-11-18T07:27:34;20.60;;;18.75;;
40252;SDS011;25972;51.854;4.534;2023-11-18T07:30:01;21.23;;;19.02;;
40252;SDS011;25972;51.854;4.534;2023-11-18T07:32:28;22.08;;;19.73;;
40252;SDS011;25972;51.854;4.534;2023-11-18T07:34:57;23.48;;;18.35;;
40252;SDS011;25972;51.854;4.534;2023-11-18T07:37:23;23.10;;;18.77;;
40252;SDS011;25972;51.854;4.534;2023-11-18T07:39:49;21.20;;;18.90;;
40252;SDS011;25972;51.854;4.534;2023-11-18T07:42:15;25.17;;;18.95;;
40252;SDS011;25972;51.854;4.534;2023-11-18T07:44:43;25.02;;;19.13;;
40252;SDS011;25972;51.854;4.534;2023-11-18T07:47:09;29.52;;;19.00;;
40252;SDS011;25972;51.854;4.534;2023-11-18T07:49:37;25.08;;;18.10;;
40252;SDS011;25972;51.854;4.534;2023-11-18T07:52:05;28.48;;;20.02;;
40252;SDS011;25972;51.854;4.534;2023-11-18T07:54:31;23.55;;;19.67;;
40252;SDS011;25972;51.854;4.534;2023-11-18T07:56:57;28.60;;;19.08;;
40252;SDS011;25972;51.854;4.534;2023-11-18T07:59:23;25.25;;;19.15;;
40252;SDS011;25972;51.854;4.534;2023-11-18T08:01:50;32.63;;;18.85;;
40252;SDS011;25972;51.854;4.534;2023-11-18T08:04:18;23.15;;;19.33;;
40252;SDS011;25972;51.854;4.534;2023-11-18T08:06:46;22.02;;;19.25;;
40252;SDS011;25972;51.854;4.534;2023-11-18T08:09:14;21.40;;;18.90;;
40252;SDS011;25972;51.854;4.534;2023-11-18T08:11:47;27.52;;;19.80;;
40252;SDS011;25972;51.854;4.534;2023-11-18T08:14:14;28.52;;;18.73;;
40252;SDS011;25972;51.854;4.534;2023-11-18T08:16:40;26.67;;;18.10;;
40252;SDS011;25972;51.854;4.534;2023-11-18T08:19:06;25.25;;;19.40;;
40252;SDS011;25972;51.854;4.534;2023-11-18T08:21:33;30.80;;;19.55;;
40252;SDS011;25972;51.854;4.534;2023-11-18T08:23:59;19.00;;;17.10;;
40252;SDS011;25972;51.854;4.534;2023-11-18T08:26:26;23.95;;;18.30;;
40252;SDS011;25972;51.854;4.534;2023-11-18T08:28:53;21.63;;;18.50;;
40252;SDS011;25972;51.854;4.534;2023-11-18T08:31:19;22.02;;;18.38;;
40252;SDS011;25972;51.854;4.534;2023-11-18T08:33:45;19.95;;;17.90;;
40252;SDS011;25972;51.854;4.534;2023-11-18T08:36:11;22.50;;;18.35;;
40252;SDS011;25972;51.854;4.534;2023-11-18T08:38:37;18.45;;;16.77;;
40252;SDS011;25972;51.854;4.534;2023-11-18T08:41:04;20.90;;;18.35;;
40252;SDS011;25972;51.854;4.534;2023-11-18T08:43:35;20.05;;;17.70;;
40252;SDS011;25972;51.854;4.534;2023-11-18T08:46:01;19.35;;;17.27;;
40252;SDS011;25972;51.854;4.534;2023-11-18T08:48:27;21.67;;;17.13;;
40252;SDS011;25972;51.854;4.534;2023-11-18T08:50:53;22.40;;;17.60;;
40252;SDS011;25972;51.854;4.534;2023-11-18T08:53:19;19.75;;;17.80;;
40252;SDS011;25972;51.854;4.534;2023-11-18T08:55:51;22.98;;;17.70;;
40252;SDS011;25972;51.854;4.534;2023-11-18T08:58:19;18.45;;;16.40;;
40252;SDS011;25972;51.854;4.534;2023-11-18T09:00:49;19.88;;;16.77;;
40252;SDS011;25972;51.854;4.534;2023-11-18T09:03:19;19.00;;;16.27;;
40252;SDS011;25972;51.854;4.534;2023-11-18T09:05:50;18.92;;;16.63;;
40252;SDS011;25972;51.854;4.534;2023-11-18T09:08:23;19.38;;;16.13;;
40252;SDS011;25972;51.854;4.534;2023-11-18T09:10:49;20.95;;;16.80;;
40252;SDS011;25972;51.854;4.534;2023-11-18T09:13:19;18.38;;;16.35;;
40252;SDS011;25972;51.854;4.534;2023-11-18T09:15:46;17.60;;;15.68;;
40252;SDS011;25972;51.854;4.534;2023-11-18T09:18:15;19.45;;;16.83;;
40252;SDS011;25972;51.854;4.534;2023-11-18T09:20:43;17.77;;;15.98;;
40252;SDS011;25972;51.854;4.534;2023-11-18T09:23:10;17.42;;;15.77;;
40252;SDS011;25972;51.854;4.534;2023-11-18T09:25:36;17.88;;;16.10;;
40252;SDS011;25972;51.854;4.534;2023-11-18T09:28:02;18.42;;;16.30;;
40252;SDS011;25972;51.854;4.534;2023-11-18T09:30:29;18.13;;;16.33;;
40252;SDS011;25972;51.854;4.534;2023-11-18T09:32:58;17.55;;;15.85;;
40252;SDS011;25972;51.854;4.534;2023-11-18T09:35:27;17.98;;;16.20;;
40252;SDS011;25972;51.854;4.534;2023-11-18T09:37:54;18.42;;;16.17;;
40252;SDS011;25972;51.854;4.534;2023-11-18T09:40:21;18.05;;;16.13;;
40252;SDS011;25972;51.854;4.534;2023-11-18T09:42:56;17.77;;;15.90;;
40252;SDS011;25972;51.854;4.534;2023-11-18T09:45:23;17.05;;;15.60;;
40252;SDS011;25972;51.854;4.534;2023-11-18T09:47:50;18.60;;;16.40;;
40252;SDS011;25972;51.854;4.534;2023-11-18T09:50:21;18.38;;;15.73;;
40252;SDS011;25972;51.854;4.534;2023-11-18T09:52:54;17.27;;;15.73;;
40252;SDS011;25972;51.854;4.534;2023-11-18T09:55:33;15.07;;;13.95;;
40252;SDS011;25972;51.854;4.534;2023-11-18T09:58:06;16.92;;;15.45;;
40252;SDS011;25972;51.854;4.534;2023-11-18T10:00:40;17.63;;;15.80;;
40252;SDS011;25972;51.854;4.534;2023-11-18T10:03:07;18.52;;;16.63;;
40252;SDS011;25972;51.854;4.534;2023-11-18T10:05:39;16.60;;;15.18;;
40252;SDS011;25972;51.854;4.534;2023-11-18T10:08:08;22.23;;;15.98;;
40252;SDS011;25972;51.854;4.534;2023-11-18T10:10:35;17.30;;;15.73;;
40252;SDS011;25972;51.854;4.534;2023-11-18T10:13:02;16.63;;;15.20;;
40252;SDS011;25972;51.854;4.534;2023-11-18T10:15:49;15.95;;;14.65;;
40252;SDS011;25972;51.854;4.534;2023-11-18T10:18:20;19.65;;;15.43;;
40252;SDS011;25972;51.854;4.534;2023-11-18T10:20:49;16.75;;;15.10;;
40252;SDS011;25972;51.854;4.534;2023-11-18T10:23:17;16.38;;;14.70;;
40252;SDS011;25972;51.854;4.534;2023-11-18T10:25:46;16.10;;;14.73;;
40252;SDS011;25972;51.854;4.534;2023-11-18T10:28:23;17.60;;;14.77;;
40252;SDS011;25972;51.854;4.534;2023-11-18T10:30:50;15.80;;;14.50;;
40252;SDS011;25972;51.854;4.534;2023-11-18T10:33:16;15.32;;;14.30;;
40252;SDS011;25972;51.854;4.534;2023-11-18T10:35:51;20.42;;;15.40;;
40252;SDS011;25972;51.854;4.534;2023-11-18T10:38:18;15.52;;;14.27;;
40252;SDS011;25972;51.854;4.534;2023-11-18T10:40:44;16.75;;;15.15;;
40252;SDS011;25972;51.854;4.534;2023-11-18T10:43:10;16.38;;;14.77;;
40252;SDS011;25972;51.854;4.534;2023-11-18T10:45:36;15.88;;;14.57;;
40252;SDS011;25972;51.854;4.534;2023-11-18T10:48:06;17.95;;;16.05;;
40252;SDS011;25972;51.854;4.534;2023-11-18T10:50:33;20.10;;;18.38;;
40252;SDS011;25972;51.854;4.534;2023-11-18T10:53:01;21.85;;;19.75;;
40252;SDS011;25972;51.854;4.534;2023-11-18T10:55:34;25.50;;;20.40;;
40252;SDS011;25972;51.854;4.534;2023-11-18T10:58:01;22.30;;;20.10;;
40252;SDS011;25972;51.854;4.534;2023-11-18T11:00:31;20.85;;;19.08;;
40252;SDS011;25972;51.854;4.534;2023-11-18T11:03:21;21.55;;;19.63;;
40252;SDS011;25972;51.854;4.534;2023-11-18T11:05:49;21.08;;;19.38;;
40252;SDS011;25972;51.854;4.534;2023-11-18T11:08:17;20.75;;;19.00;;
40252;SDS011;25972;51.854;4.534;2023-11-18T11:10:45;20.73;;;19.00;;
40252;SDS011;25972;51.854;4.534;2023-11-18T11:13:13;21.85;;;19.85;;
40252;SDS011;25972;51.854;4.534;2023-11-18T11:15:43;21.75;;;19.65;;
40252;SDS011;25972;51.854;4.534;2023-11-18T11:18:11;19.80;;;18.40;;
40252;SDS011;25972;51.854;4.534;2023-11-18T11:20:47;20.23;;;18.38;;
40252;SDS011;25972;51.854;4.534;2023-11-18T11:23:21;20.45;;;18.95;;
40252;SDS011;25972;51.854;4.534;2023-11-18T11:26:00;21.25;;;19.00;;
40252;SDS011;25972;51.854;4.534;2023-11-18T11:28:36;20.33;;;18.77;;
40252;SDS011;25972;51.854;4.534;2023-11-18T11:31:12;20.77;;;19.17;;
40252;SDS011;25972;51.854;4.534;2023-11-18T11:33:49;20.58;;;19.05;;
40252;SDS011;25972;51.854;4.534;2023-11-18T11:36:25;20.95;;;19.25;;
40252;SDS011;25972;51.854;4.534;2023-11-18T11:39:00;21.40;;;19.45;;
40252;SDS011;25972;51.854;4.534;2023-11-18T11:41:28;20.92;;;19.17;;
40252;SDS011;25972;51.854;4.534;2023-11-18T11:43:59;26.05;;;19.08;;
40252;SDS011;25972;51.854;4.534;2023-11-18T11:46:26;20.77;;;19.17;;
40252;SDS011;25972;51.854;4.534;2023-11-18T11:49:00;21.25;;;19.25;;
40252;SDS011;25972;51.854;4.534;2023-11-18T11:51:37;20.73;;;18.73;;
40252;SDS011;25972;51.854;4.534;2023-11-18T11:54:11;20.15;;;18.65;;
40252;SDS011;25972;51.854;4.534;2023-11-18T11:56:44;20.77;;;19.08;;
40252;SDS011;25972;51.854;4.534;2023-11-18T11:59:15;20.33;;;18.67;;
40252;SDS011;25972;51.854;4.534;2023-11-18T12:01:41;20.23;;;18.67;;
40252;SDS011;25972;51.854;4.534;2023-11-18T12:04:12;19.15;;;17.85;;
40252;SDS011;25972;51.854;4.534;2023-11-18T12:06:46;19.67;;;18.27;;
40252;SDS011;25972;51.854;4.534;2023-11-18T12:09:14;20.02;;;18.55;;
40252;SDS011;25972;51.854;4.534;2023-11-18T12:11:45;20.17;;;18.60;;
40252;SDS011;25972;51.854;4.534;2023-11-18T12:14:15;18.77;;;17.48;;
40252;SDS011;25972;51.854;4.534;2023-11-18T12:17:02;19.75;;;18.35;;
40252;SDS011;25972;51.854;4.534;2023-11-18T12:19:38;19.27;;;17.88;;
40252;SDS011;25972;51.854;4.534;2023-11-18T12:22:12;19.55;;;17.92;;
40252;SDS011;25972;51.854;4.534;2023-11-18T12:27:57;19.65;;;18.30;;
40252;SDS011;25972;51.854;4.534;2023-11-18T12:30:39;20.55;;;18.85;;
40252;SDS011;25972;51.854;4.534;2023-11-18T12:33:16;19.10;;;17.80;;
40252;SDS011;25972;51.854;4.534;2023-11-18T12:35:54;19.92;;;18.52;;
40252;SDS011;25972;51.854;4.534;2023-11-18T12:39:00;19.40;;;17.85;;
40252;SDS011;25972;51.854;4.534;2023-11-18T12:42:03;19.50;;;17.92;;
40252;SDS011;25972;51.854;4.534;2023-11-18T12:44:52;19.85;;;18.25;;
40252;SDS011;25972;51.854;4.534;2023-11-18T12:47:39;19.92;;;18.42;;
40252;SDS011;25972;51.854;4.534;2023-11-18T12:50:10;19.35;;;17.95;;
40252;SDS011;25972;51.854;4.534;2023-11-18T12:52:49;20.42;;;18.60;;
40252;SDS011;25972;51.854;4.534;2023-11-18T12:55:16;19.67;;;18.17;;
40252;SDS011;25972;51.854;4.534;2023-11-18T12:57:46;19.30;;;17.90;;
40252;SDS011;25972;51.854;4.534;2023-11-18T13:00:13;18.85;;;17.52;;
40252;SDS011;25972;51.854;4.534;2023-11-18T13:02:44;18.85;;;17.45;;
40252;SDS011;25972;51.854;4.534;2023-11-18T13:05:10;19.30;;;17.90;;
40252;SDS011;25972;51.854;4.534;2023-11-18T13:07:38;19.48;;;18.05;;
40252;SDS011;25972;51.854;4.534;2023-11-18T13:10:05;17.65;;;16.48;;
40252;SDS011;25972;51.854;4.534;2023-11-18T13:12:32;19.83;;;18.15;;
40252;SDS011;25972;51.854;4.534;2023-11-18T13:15:01;19.80;;;18.27;;
40252;SDS011;25972;51.854;4.534;2023-11-18T13:17:28;19.23;;;17.83;;
40252;SDS011;25972;51.854;4.534;2023-11-18T13:19:55;19.35;;;17.70;;
40252;SDS011;25972;51.854;4.534;2023-11-18T13:22:23;19.13;;;17.50;;
40252;SDS011;25972;51.854;4.534;2023-11-18T13:24:49;19.10;;;17.70;;
40252;SDS011;25972;51.854;4.534;2023-11-18T13:27:16;18.17;;;16.88;;
40252;SDS011;25972;51.854;4.534;2023-11-18T13:29:44;19.05;;;17.65;;
40252;SDS011;25972;51.854;4.534;2023-11-18T13:32:15;18.98;;;17.35;;
40252;SDS011;25972;51.854;4.534;2023-11-18T13:34:42;19.02;;;17.50;;
40252;SDS011;25972;51.854;4.534;2023-11-18T13:37:08;17.98;;;16.77;;
40252;SDS011;25972;51.854;4.534;2023-11-18T13:39:39;18.77;;;17.38;;
40252;SDS011;25972;51.854;4.534;2023-11-18T13:42:19;18.25;;;16.90;;
40252;SDS011;25972;51.854;4.534;2023-11-18T13:44:47;17.85;;;16.65;;
40252;SDS011;25972;51.854;4.534;2023-11-18T13:47:13;17.60;;;16.45;;
40252;SDS011;25972;51.854;4.534;2023-11-18T13:49:45;17.70;;;16.60;;
40252;SDS011;25972;51.854;4.534;2023-11-18T13:52:15;17.77;;;16.58;;
40252;SDS011;25972;51.854;4.534;2023-11-18T13:54:43;19.40;;;18.00;;
40252;SDS011;25972;51.854;4.534;2023-11-18T13:57:13;18.13;;;16.92;;
40252;SDS011;25972;51.854;4.534;2023-11-18T13:59:39;18.33;;;16.92;;
40252;SDS011;25972;51.854;4.534;2023-11-18T14:02:08;18.13;;;16.92;;
40252;SDS011;25972;51.854;4.534;2023-11-18T14:04:39;18.27;;;16.92;;
40252;SDS011;25972;51.854;4.534;2023-11-18T14:07:08;17.67;;;16.50;;
40252;SDS011;25972;51.854;4.534;2023-11-18T14:09:35;18.00;;;16.67;;
40252;SDS011;25972;51.854;4.534;2023-11-18T14:12:05;17.92;;;16.73;;
40252;SDS011;25972;51.854;4.534;2023-11-18T14:14:33;18.10;;;16.90;;
40252;SDS011;25972;51.854;4.534;2023-11-18T14:16:59;17.55;;;16.40;;
40252;SDS011;25972;51.854;4.534;2023-11-18T14:19:26;17.73;;;16.33;;
40252;SDS011;25972;51.854;4.534;2023-11-18T14:21:56;16.90;;;15.73;;
40252;SDS011;25972;51.854;4.534;2023-11-18T14:24:23;17.17;;;16.08;;
40252;SDS011;25972;51.854;4.534;2023-11-18T14:26:52;17.17;;;16.08;;
40252;SDS011;25972;51.854;4.534;2023-11-18T14:29:19;17.00;;;15.90;;
40252;SDS011;25972;51.854;4.534;2023-11-18T14:31:45;17.77;;;16.58;;